McPherson, Kansas
Current Conditions -  °F | °C
As of 11:52 AM on Tuesday 21 Oct 2014 (Local Time) from KHUT Reporting Station
Few Clouds Few Clouds  
Wind Chill: 24°   Ceiling: Unl
Heat Index: 24°   Visibility: 10mi
Dew Point: 13°   Wind: 14mph
Humidity: 50%   Direction: 150°SSE
Pressure: 30.09"   Gusts: NA
Location:  38.37°N, 97.67°W
Report Text: KHUT 211652Z 15012KT 10SM FEW065 24/13 A3009 RMK AO2 SLP177 T02390128
Loading
Personal Weather Stations






























Interactive Weather Map
Tropical Storm Tracking
New forecast layout! Learn more

10-Day Weather Forecast

Advertisements
Track Severe Weather on mobile